Time;durP1;ratioP1;P1;durP2;ratioP2;P2;SDS_P1;SDS_P2;PMS_P1;PMS_P2;Temp;Humidity;BMP_temperature;BMP_pressure;BME280_temperature;BME280_humidity;BME280_pressure;Samples;Min_cycle;Max_cycle;Signal;HPM_P1;HPM_P2
2021/10/24 00:01:49;;;;;;;43.60;41.10;;;;;;;11.97;100.00;102238.69;1941046;74;33075;-66
2021/10/24 00:07:14;;;;;;;48.10;45.30;;;;;;;11.94;100.00;102229.45;1940994;74;32993;-69
2021/10/24 00:12:38;;;;;;;47.83;45.03;;;;;;;12.04;100.00;102225.94;1941048;74;32990;-69
2021/10/24 00:18:06;;;;;;;47.00;44.27;;;;;;;11.74;100.00;102225.03;1941275;74;33672;-67
2021/10/24 00:23:33;;;;;;;44.87;42.27;;;;;;;11.91;100.00;102223.56;1941173;74;33097;-67
2021/10/24 00:28:59;;;;;;;41.83;39.63;;;;;;;12.14;100.00;102217.16;1941213;74;33040;-67
2021/10/24 00:34:24;;;;;;;43.07;40.67;;;;;;;12.33;100.00;102209.25;1941262;74;33089;-69
2021/10/24 00:39:48;;;;;;;44.10;41.70;;;;;;;12.23;100.00;102213.34;1941250;74;33567;-68
2021/10/24 00:45:12;;;;;;;39.50;37.20;;;;;;;12.28;100.00;102204.47;1941140;74;32974;-68
2021/10/24 00:50:37;;;;;;;42.47;39.87;;;;;;;12.23;100.00;102197.48;1941266;74;33561;-69
2021/10/24 00:56:05;;;;;;;41.63;39.43;;;;;;;12.08;100.00;102201.48;1941001;74;33055;-67
2021/10/24 01:01:32;;;;;;;38.30;36.20;;;;;;;12.40;100.00;102195.97;1941304;74;33566;-69
2021/10/24 01:07:02;;;;;;;36.80;34.80;;;;;;;12.33;100.00;102183.63;1941275;74;33528;-68
2021/10/24 01:12:25;;;;;;;39.60;37.30;;;;;;;12.40;100.00;102177.00;1941260;74;33545;-68
2021/10/24 01:17:51;;;;;;;34.57;32.77;;;;;;;12.42;100.00;102163.62;1941284;74;33473;-68
2021/10/24 01:23:17;;;;;;;32.17;30.37;;;;;;;12.70;100.00;102161.38;1941150;74;33527;-68
2021/10/24 01:28:41;;;;;;;30.70;28.90;;;;;;;12.85;100.00;102158.39;1941013;74;32955;-68
2021/10/24 01:34:06;;;;;;;28.77;27.37;;;;;;;12.83;100.00;102154.49;1941052;74;33042;-67
2021/10/24 01:39:30;;;;;;;33.17;31.37;;;;;;;12.83;100.00;102149.47;1940956;74;33023;-67
2021/10/24 01:44:54;;;;;;;32.00;30.40;;;;;;;12.83;100.00;102138.31;1941195;74;33456;-68
2021/10/24 01:50:19;;;;;;;32.43;30.80;;;;;;;12.75;100.00;102132.66;1941215;74;33430;-68
2021/10/24 01:55:44;;;;;;;34.03;32.23;;;;;;;12.67;100.00;102122.86;1941030;74;33029;-69
2021/10/24 02:01:09;;;;;;;29.87;28.17;;;;;;;12.82;100.00;102117.11;1941280;74;33042;-67
2021/10/24 02:06:34;;;;;;;31.87;30.27;;;;;;;12.73;100.00;102109.25;1941062;74;32958;-67
2021/10/24 02:11:58;;;;;;;32.93;31.20;;;;;;;12.80;100.00;102100.63;1941143;74;33063;-69
2021/10/24 02:17:22;;;;;;;32.93;31.07;;;;;;;12.71;100.00;102092.48;1941196;74;33070;-69
2021/10/24 02:22:47;;;;;;;31.13;29.27;;;;;;;12.96;100.00;102088.48;1940876;74;32972;-67
2021/10/24 02:28:12;;;;;;;30.80;29.20;;;;;;;12.92;100.00;102073.95;1941016;74;33058;-67
2021/10/24 02:33:38;;;;;;;29.63;28.13;;;;;;;12.97;100.00;102064.19;1941016;74;32972;-67
2021/10/24 02:39:03;;;;;;;30.90;29.30;;;;;;;12.98;100.00;102062.53;1941096;74;33042;-67
2021/10/24 02:44:28;;;;;;;31.17;29.47;;;;;;;12.94;100.00;102055.81;1940952;74;32999;-67
2021/10/24 02:49:54;;;;;;;31.63;29.83;;;;;;;12.90;100.00;102053.84;1941225;74;33469;-67
2021/10/24 02:55:18;;;;;;;31.50;29.70;;;;;;;12.75;100.00;102050.41;1941044;74;33053;-67
2021/10/24 02:57:50;;;;;;;30.03;28.33;;;;;;;12.77;100.00;102049.05;1905042;75;26207;-68
2021/10/24 03:03:15;;;;;;;31.17;29.50;;;;;;;12.89;100.00;102030.69;1941007;74;32950;-67
2021/10/24 03:08:39;;;;;;;31.67;29.90;;;;;;;12.77;100.00;102035.11;1941007;74;33053;-68
2021/10/24 03:14:04;;;;;;;29.03;27.53;;;;;;;12.83;100.00;102025.38;1941015;74;32975;-68
2021/10/24 03:19:28;;;;;;;29.57;27.97;;;;;;;12.96;100.00;102024.33;1941221;74;33571;-67
2021/10/24 03:24:52;;;;;;;30.37;28.57;;;;;;;12.88;100.00;102019.83;1941004;74;33110;-68
2021/10/24 03:30:17;;;;;;;34.13;32.23;;;;;;;12.86;100.00;102005.30;1941154;74;33016;-67
2021/10/24 03:35:42;;;;;;;34.47;32.67;;;;;;;12.76;100.00;101999.12;1941280;74;33528;-67
2021/10/24 03:41:06;;;;;;;38.00;35.90;;;;;;;12.66;100.00;102004.08;1941228;74;33497;-67
2021/10/24 03:46:31;;;;;;;42.30;39.80;;;;;;;12.68;100.00;101994.91;1941265;74;32999;-68
2021/10/24 03:51:56;;;;;;;44.57;41.90;;;;;;;12.37;100.00;101994.45;1941187;74;33702;-68
2021/10/24 03:57:20;;;;;;;46.73;44.03;;;;;;;12.28;100.00;102000.23;1940988;74;33083;-69
2021/10/24 04:02:56;;;;;;;44.83;42.10;;;;;;;12.33;100.00;101991.36;1877833;76;33209;-67
2021/10/24 04:08:21;;;;;;;44.80;41.60;;;;;;;12.18;100.00;101993.22;1940974;74;32989;-67
2021/10/24 04:13:46;;;;;;;43.30;40.80;;;;;;;12.14;100.00;101992.08;1941249;74;33465;-67
2021/10/24 04:19:10;;;;;;;45.13;42.33;;;;;;;12.25;100.00;101987.70;1941083;74;33309;-68
2021/10/24 04:24:35;;;;;;;42.80;40.20;;;;;;;12.17;100.00;101975.67;1941258;74;33006;-68
2021/10/24 04:30:00;;;;;;;42.93;40.33;;;;;;;12.23;100.00;101986.30;1941251;74;33119;-67
2021/10/24 04:35:24;;;;;;;44.83;42.13;;;;;;;12.16;100.00;101986.52;1941217;74;33071;-67
2021/10/24 04:40:54;;;;;;;43.30;40.70;;;;;;;12.17;100.00;101981.23;1941001;74;33054;-67
2021/10/24 04:46:20;;;;;;;42.87;40.17;;;;;;;12.08;100.00;101972.25;1941030;74;33056;-69
2021/10/24 04:51:46;;;;;;;41.63;39.23;;;;;;;12.14;100.00;101975.38;1941121;74;33291;-67
2021/10/24 04:57:10;;;;;;;43.73;40.93;;;;;;;12.03;100.00;101971.66;1941198;74;33504;-69
2021/10/24 05:02:36;;;;;;;44.97;42.07;;;;;;;12.00;100.00;101966.64;1941039;74;33089;-67
2021/10/24 05:08:02;;;;;;;44.73;41.77;;;;;;;12.03;100.00;101963.86;1941112;74;33105;-68
2021/10/24 05:13:27;;;;;;;42.40;39.70;;;;;;;12.02;100.00;101967.22;1941227;74;33592;-67
2021/10/24 05:18:51;;;;;;;41.67;39.20;;;;;;;12.23;100.00;101959.28;1941044;74;33143;-67
2021/10/24 05:24:15;;;;;;;42.30;39.80;;;;;;;12.16;100.00;101956.42;1941016;74;33139;-68
2021/10/24 05:29:40;;;;;;;45.97;43.07;;;;;;;12.00;100.00;101956.05;1941101;74;33007;-68
2021/10/24 05:35:05;;;;;;;44.77;42.07;;;;;;;12.12;100.00;101952.50;1940984;74;33067;-67
2021/10/24 05:40:51;;;;;;;43.20;40.57;;;;;;;12.07;100.00;101945.50;2009826;71;32955;-67
2021/10/24 05:46:15;;;;;;;38.90;36.70;;;;;;;12.19;100.00;101936.41;1940925;74;33064;-67
2021/10/24 05:51:40;;;;;;;41.40;39.00;;;;;;;12.38;100.00;101927.86;1940986;74;33146;-68
2021/10/24 05:57:06;;;;;;;37.73;35.63;;;;;;;12.49;100.00;101924.59;1940911;74;33079;-68
2021/10/24 06:02:30;;;;;;;38.00;35.80;;;;;;;12.39;100.00;101914.22;1940808;74;33053;-68
2021/10/24 06:07:55;;;;;;;41.20;38.50;;;;;;;12.17;100.00;101911.60;1940935;74;32992;-67
2021/10/24 06:13:19;;;;;;;37.63;35.63;;;;;;;12.36;100.00;101903.63;1941179;74;33438;-67
2021/10/24 06:18:45;;;;;;;35.57;33.40;;;;;;;12.53;100.00;101909.00;1941289;74;33551;-69
2021/10/24 06:24:09;;;;;;;35.10;33.30;;;;;;;12.56;100.00;101899.53;1941201;74;33494;-67
2021/10/24 06:29:34;;;;;;;32.40;30.50;;;;;;;12.55;100.00;101885.30;1940975;74;33072;-67
2021/10/24 06:35:00;;;;;;;34.13;32.23;;;;;;;12.03;100.00;101802.34;1941048;74;33039;-68
2021/10/24 06:40:25;;;;;;;34.27;32.37;;;;;;;12.38;100.00;101888.85;1941237;74;33466;-68
2021/10/24 06:45:50;;;;;;;32.53;30.73;;;;;;;12.62;100.00;101883.67;1941035;74;33018;-69
2021/10/24 06:51:14;;;;;;;35.03;33.17;;;;;;;12.45;100.00;101876.08;1941038;74;32950;-69
2021/10/24 06:56:38;;;;;;;37.33;35.27;;;;;;;12.37;100.00;101884.38;1941007;74;33080;-69
2021/10/24 07:02:02;;;;;;;36.23;34.20;;;;;;;12.48;100.00;101883.89;1941052;74;33068;-69
2021/10/24 07:07:27;;;;;;;34.90;32.90;;;;;;;12.62;100.00;101890.64;1940994;74;33057;-66
2021/10/24 07:12:54;;;;;;;36.10;34.10;;;;;;;12.59;100.00;101894.80;1941242;74;33513;-66
2021/10/24 07:18:19;;;;;;;34.40;32.60;;;;;;;12.76;100.00;101897.35;1941130;74;33078;-67
2021/10/24 07:23:43;;;;;;;36.70;34.50;;;;;;;12.79;100.00;101894.84;1907620;75;33046;-67
2021/10/24 07:29:07;;;;;;;37.87;35.77;;;;;;;12.74;100.00;101897.64;1941261;74;33510;-68
2021/10/24 07:34:32;;;;;;;37.70;35.50;;;;;;;12.84;100.00;101895.97;1941223;74;33510;-67
2021/10/24 07:39:56;;;;;;;34.80;33.10;;;;;;;12.87;100.00;101889.87;1940991;74;32950;-69
2021/10/24 07:45:21;;;;;;;33.80;32.00;;;;;;;12.91;100.00;101902.14;1941004;74;32983;-66
2021/10/24 07:50:46;;;;;;;33.20;31.30;;;;;;;13.13;100.00;101893.86;1940950;74;33132;-69
2021/10/24 07:56:10;;;;;;;33.90;31.73;;;;;;;13.05;100.00;101896.33;1941158;74;33504;-67
2021/10/24 08:01:37;;;;;;;32.57;30.67;;;;;;;13.21;100.00;101903.63;1941181;74;33694;-69
2021/10/24 08:07:06;;;;;;;31.63;29.93;;;;;;;13.23;100.00;101897.20;1940938;74;32956;-68
2021/10/24 08:12:30;;;;;;;31.93;30.13;;;;;;;13.28;100.00;101897.20;1940966;74;32943;-69
2021/10/24 08:17:55;;;;;;;32.80;30.90;;;;;;;13.22;100.00;101901.13;1941016;74;32972;-69
2021/10/24 08:23:20;;;;;;;31.00;29.40;;;;;;;13.21;100.00;101900.84;1940947;74;33034;-69
2021/10/24 08:28:44;;;;;;;32.27;30.47;;;;;;;13.29;100.00;101894.70;1941025;74;32980;-69
2021/10/24 08:34:08;;;;;;;31.33;29.53;;;;;;;13.30;100.00;101895.55;1941185;74;33504;-67
2021/10/24 08:39:33;;;;;;;31.67;30.07;;;;;;;13.21;100.00;101893.86;1940978;74;32958;-67
2021/10/24 08:45:00;;;;;;;30.73;28.93;;;;;;;13.18;100.00;101895.80;1941227;74;33126;-71
2021/10/24 08:50:25;;;;;;;31.40;29.43;;;;;;;13.30;100.00;101889.97;1941152;74;33444;-68
2021/10/24 08:55:51;;;;;;;30.77;29.27;;;;;;;13.21;100.00;101885.49;1941212;74;33481;-68
2021/10/24 09:01:15;;;;;;;33.30;31.40;;;;;;;13.17;100.00;101876.84;1941131;74;33131;-70
2021/10/24 09:07:03;;;;;;;33.10;31.10;;;;;;;13.08;100.00;101873.45;1941063;74;33005;-70
2021/10/24 09:12:29;;;;;;;31.27;29.53;;;;;;;13.12;100.00;101864.84;1940962;74;32951;-69
2021/10/24 09:18:08;;;;;;;30.00;28.20;;;;;;;13.35;100.00;101864.27;1941200;74;33498;-68
2021/10/24 09:23:33;;;;;;;30.77;29.07;;;;;;;13.42;100.00;101861.22;1941055;74;33040;-67
2021/10/24 09:29:05;;;;;;;29.33;27.63;;;;;;;13.30;100.00;101859.27;1941202;74;33608;-70
2021/10/24 09:34:32;;;;;;;29.43;27.70;;;;;;;13.60;100.00;101860.66;1941063;74;33031;-68
2021/10/24 09:40:00;;;;;;;29.13;27.60;;;;;;;13.69;100.00;101861.77;1941155;74;33015;-68
2021/10/24 09:45:25;;;;;;;28.60;27.20;;;;;;;13.64;100.00;101858.42;1941161;74;33029;-68
2021/10/24 09:50:52;;;;;;;27.70;26.20;;;;;;;13.85;100.00;101850.83;1941001;74;33564;-69
2021/10/24 09:56:21;;;;;;;26.87;25.57;;;;;;;13.86;100.00;101846.89;1940940;74;33100;-68
2021/10/24 10:01:48;;;;;;;26.20;24.87;;;;;;;14.05;100.00;101844.34;1941217;74;33565;-69
2021/10/24 10:07:21;;;;;;;26.80;25.40;;;;;;;14.01;100.00;101839.89;1941223;74;33504;-70
2021/10/24 10:13:07;;;;;;;25.60;24.30;;;;;;;13.95;100.00;101831.79;2010013;71;33349;-67
2021/10/24 10:19:00;;;;;;;24.10;22.70;;;;;;;14.02;100.00;101823.41;1941456;74;33165;-70
2021/10/24 10:27:52;;;;;;;23.87;22.40;;;;;;;14.29;100.00;101820.80;1941264;74;33600;-72
2021/10/24 10:33:36;;;;;;;22.13;21.13;;;;;;;14.38;100.00;101812.92;1941232;74;33578;-69
2021/10/24 10:39:02;;;;;;;23.47;22.07;;;;;;;14.32;100.00;101811.83;1941355;74;33165;-72
2021/10/24 10:44:39;;;;;;;21.53;20.43;;;;;;;14.21;100.00;101811.02;1941092;74;33063;-70
2021/10/24 10:47:46;;;;;;;22.03;20.93;;;;;;;14.21;100.00;101822.75;1905275;75;26709;-68
2021/10/24 10:54:09;;;;;;;23.07;21.97;;;;;;;14.59;100.00;101807.50;1941263;74;33565;-74
2021/10/24 10:59:45;;;;;;;22.37;21.17;;;;;;;14.59;100.00;101808.05;1941260;74;32977;-72
2021/10/24 11:05:24;;;;;;;20.17;19.17;;;;;;;14.67;100.00;101800.48;1941434;74;33466;-75
2021/10/24 11:10:49;;;;;;;21.37;20.20;;;;;;;14.74;100.00;101805.73;1941242;74;33573;-72
2021/10/24 11:16:44;;;;;;;21.20;20.07;;;;;;;14.48;100.00;101790.52;1941226;74;33614;-71
2021/10/24 11:22:53;;;;;;;24.90;23.60;;;;;;;14.38;100.00;101775.19;1941273;74;33158;-72
2021/10/24 11:28:25;;;;;;;24.03;22.73;;;;;;;14.46;100.00;101763.98;1941244;74;32990;-72
2021/10/24 11:33:55;;;;;;;23.30;22.03;;;;;;;14.65;100.00;101759.93;1941325;74;33489;-71
2021/10/24 11:39:27;;;;;;;24.27;22.50;;;;;;;14.77;100.00;101749.21;1941154;74;33000;-69
2021/10/24 11:45:17;;;;;;;24.10;22.73;;;;;;;14.87;100.00;101744.95;1941339;74;33143;-70
2021/10/24 11:50:58;;;;;;;23.97;22.70;;;;;;;14.86;100.00;101740.47;1941083;74;33655;-69
2021/10/24 11:56:38;;;;;;;23.83;22.53;;;;;;;14.95;100.00;101733.12;1941189;74;33597;-70
2021/10/24 12:02:10;;;;;;;24.97;23.47;;;;;;;14.94;100.00;101721.09;1940961;74;33035;-69
2021/10/24 12:07:36;;;;;;;25.13;23.73;;;;;;;14.91;100.00;101720.84;1941263;74;33565;-71
2021/10/24 12:13:09;;;;;;;24.33;23.07;;;;;;;14.94;100.00;101717.45;1941043;74;33124;-68
2021/10/24 12:18:39;;;;;;;24.67;23.27;;;;;;;15.10;100.00;101706.42;1941103;74;33110;-70
2021/10/24 12:24:20;;;;;;;26.20;24.90;;;;;;;14.96;100.00;101716.61;1941029;74;32986;-70
2021/10/24 12:30:01;;;;;;;25.30;23.90;;;;;;;14.97;100.00;101708.50;1941067;74;33146;-71
2021/10/24 12:35:25;;;;;;;26.87;25.47;;;;;;;14.95;100.00;101701.78;1941233;74;32957;-71
2021/10/24 12:41:01;;;;;;;26.67;25.20;;;;;;;14.85;100.00;101700.47;1941085;74;33123;-70
2021/10/24 12:46:32;;;;;;;27.70;26.07;;;;;;;15.29;100.00;101693.89;1941201;74;33039;-70
2021/10/24 12:52:17;;;;;;;27.03;25.27;;;;;;;15.37;100.00;101691.27;1941299;74;33646;-71
2021/10/24 12:57:42;;;;;;;28.27;26.80;;;;;;;14.98;100.00;101685.80;1941190;74;33558;-70
2021/10/24 13:03:08;;;;;;;28.63;27.03;;;;;;;15.14;100.00;101682.88;1940991;74;33641;-71
2021/10/24 13:08:32;;;;;;;28.33;26.87;;;;;;;15.02;100.00;101663.66;1941047;74;33034;-72
2021/10/24 13:13:57;;;;;;;28.23;26.80;;;;;;;15.29;100.00;101656.94;1941192;74;33020;-70
2021/10/24 13:19:21;;;;;;;29.80;27.90;;;;;;;15.27;100.00;101656.98;1941133;74;33051;-71
2021/10/24 13:24:46;;;;;;;29.83;28.13;;;;;;;15.14;100.00;101657.68;1941045;74;33052;-72
2021/10/24 13:30:12;;;;;;;31.13;29.47;;;;;;;15.01;100.00;101657.81;1941108;74;33047;-71
2021/10/24 13:35:36;;;;;;;31.43;29.57;;;;;;;14.96;100.00;101645.27;1941308;74;33524;-71
2021/10/24 13:41:01;;;;;;;33.10;31.20;;;;;;;15.07;100.00;101650.18;1941016;74;33034;-72
2021/10/24 13:46:27;;;;;;;31.03;29.10;;;;;;;15.21;100.00;101634.36;1941162;74;33150;-72
2021/10/24 13:51:52;;;;;;;31.30;29.60;;;;;;;15.16;100.00;101628.26;1941339;74;33528;-74
2021/10/24 13:57:16;;;;;;;31.47;29.30;;;;;;;15.44;100.00;101617.58;1941345;74;33454;-71
2021/10/24 14:02:47;;;;;;;32.57;30.77;;;;;;;15.32;100.00;101619.11;1941218;74;33583;-73
2021/10/24 14:08:07;;;;;;;35.38;33.20;;;;;;;15.34;100.00;101624.69;1925105;74;38418;-73
2021/10/24 14:13:32;;;;;;;30.70;29.00;;;;;;;15.28;100.00;101617.47;1941206;74;33055;-71
2021/10/24 14:18:56;;;;;;;30.90;29.10;;;;;;;15.33;100.00;101616.58;1941253;74;33045;-71
2021/10/24 14:24:20;;;;;;;32.60;30.77;;;;;;;15.56;100.00;101605.13;1941165;74;32964;-71
2021/10/24 14:29:44;;;;;;;32.13;30.27;;;;;;;15.57;100.00;101598.41;1941114;74;33140;-72
2021/10/24 14:35:10;;;;;;;31.67;29.97;;;;;;;15.63;100.00;101596.63;1941009;74;33080;-69
2021/10/24 14:40:34;;;;;;;34.70;32.47;;;;;;;15.47;100.00;101596.53;1941122;74;33073;-72
2021/10/24 14:45:59;;;;;;;36.93;34.93;;;;;;;15.43;100.00;101594.91;1941209;74;33453;-70
2021/10/24 14:51:23;;;;;;;37.10;35.03;;;;;;;15.37;100.00;101590.49;1941011;74;33139;-72
2021/10/24 14:56:47;;;;;;;38.63;36.43;;;;;;;15.43;100.00;101577.27;1941170;74;33471;-69
2021/10/24 15:02:12;;;;;;;38.13;35.97;;;;;;;15.39;100.00;101576.20;1941048;74;33063;-71
2021/10/24 15:07:36;;;;;;;40.70;38.30;;;;;;;15.38;100.00;101574.53;1941039;74;33071;-72
2021/10/24 15:13:04;;;;;;;39.70;37.33;;;;;;;15.34;100.00;101572.06;1940957;74;32982;-72
2021/10/24 15:18:47;;;;;;;39.20;36.93;;;;;;;15.35;100.00;101577.94;1941336;74;33578;-71
2021/10/24 15:24:00;;;;;;;41.23;39.03;;;;;;;15.32;100.00;101575.16;1941422;74;33081;-72
2021/10/24 15:29:26;;;;;;;40.13;37.83;;;;;;;15.30;100.00;101576.59;1941280;74;33057;-74
2021/10/24 15:34:50;;;;;;;40.83;38.63;;;;;;;15.37;100.00;101556.90;1941166;74;33055;-74
2021/10/24 15:40:16;;;;;;;42.53;40.20;;;;;;;15.29;100.00;101556.73;1940993;74;33032;-71
2021/10/24 15:45:43;;;;;;;45.53;42.83;;;;;;;15.15;100.00;101542.63;1941352;74;33080;-69
2021/10/24 15:51:08;;;;;;;46.87;44.33;;;;;;;15.17;100.00;101547.38;1940949;74;33064;-74
2021/10/24 15:56:32;;;;;;;46.90;44.37;;;;;;;15.21;100.00;101547.03;1940915;74;33005;-71
2021/10/24 16:02:17;;;;;;;47.17;44.47;;;;;;;15.24;100.00;101550.62;2009840;71;32935;-74
2021/10/24 16:07:41;;;;;;;49.57;46.57;;;;;;;15.18;100.00;101551.01;1941266;74;33117;-73
2021/10/24 16:13:07;;;;;;;47.53;44.93;;;;;;;15.24;100.00;101550.62;1941073;74;33085;-74
2021/10/24 16:18:31;;;;;;;50.00;47.40;;;;;;;15.20;100.00;101557.95;1941055;74;33062;-72
2021/10/24 16:23:55;;;;;;;51.90;49.13;;;;;;;15.14;100.00;101553.58;1941241;74;33534;-72
2021/10/24 16:29:19;;;;;;;49.97;47.23;;;;;;;15.12;100.00;101558.63;1940976;74;33093;-72
2021/10/24 16:34:44;;;;;;;53.07;50.13;;;;;;;15.08;100.00;101561.75;1940944;74;32973;-72
2021/10/24 16:40:13;;;;;;;51.90;49.00;;;;;;;15.07;100.00;101562.03;1941109;74;33072;-70
2021/10/24 16:45:41;;;;;;;53.03;50.13;;;;;;;15.01;100.00;101557.09;1941023;74;32990;-71
2021/10/24 16:51:05;;;;;;;53.50;49.90;;;;;;;15.04;100.00;101557.32;1941304;74;33085;-69
2021/10/24 16:56:30;;;;;;;52.90;49.60;;;;;;;14.98;100.00;101554.30;1941233;74;33467;-70
2021/10/24 17:01:55;;;;;;;54.90;51.57;;;;;;;14.97;100.00;101554.62;1941259;74;33051;-69
2021/10/24 17:07:21;;;;;;;54.00;50.90;;;;;;;15.00;100.00;101563.80;1941046;74;33054;-70
2021/10/24 17:12:47;;;;;;;49.20;45.97;;;;;;;14.96;100.00;101567.77;1941200;74;33592;-71
2021/10/24 17:18:13;;;;;;;52.17;48.87;;;;;;;14.92;100.00;101563.91;1941063;74;33046;-68
2021/10/24 17:23:38;;;;;;;52.90;49.80;;;;;;;14.86;100.00;101569.83;1942977;74;33614;-71
2021/10/24 17:29:04;;;;;;;51.30;48.00;;;;;;;14.91;100.00;101566.98;1941239;74;33021;-71
2021/10/24 17:34:28;;;;;;;52.63;48.87;;;;;;;14.80;100.00;101566.28;1941382;74;33575;-70
2021/10/24 17:39:53;;;;;;;52.97;49.47;;;;;;;14.68;100.00;101580.36;1941241;74;33603;-69
2021/10/24 17:45:18;;;;;;;51.43;48.03;;;;;;;14.63;100.00;101591.62;1941289;74;33478;-68
2021/10/24 17:50:45;;;;;;;45.20;41.97;;;;;;;14.48;100.00;101596.22;1941029;74;33093;-68
2021/10/24 17:56:11;;;;;;;47.43;44.00;;;;;;;14.46;100.00;101592.06;1941233;74;33077;-69
2021/10/24 18:01:35;;;;;;;44.63;41.50;;;;;;;14.42;100.00;101597.94;1941052;74;33005;-70
2021/10/24 18:07:01;;;;;;;47.30;44.00;;;;;;;14.43;100.00;101599.06;1941167;74;33095;-68
2021/10/24 18:12:26;;;;;;;45.93;42.53;;;;;;;14.33;100.00;101601.92;1941013;74;32993;-67
2021/10/24 18:17:50;;;;;;;47.50;44.30;;;;;;;14.25;100.00;101601.72;1940985;74;32997;-66
2021/10/24 18:23:19;;;;;;;46.00;42.70;;;;;;;14.10;100.00;101604.05;1940995;74;33108;-67
2021/10/24 18:28:44;;;;;;;45.27;41.87;;;;;;;14.06;100.00;101609.95;1941275;74;33639;-70
2021/10/24 18:34:09;;;;;;;44.27;41.10;;;;;;;14.03;100.00;101607.16;1941049;74;33147;-68
2021/10/24 18:39:37;;;;;;;44.70;41.40;;;;;;;13.97;100.00;101618.66;1941287;74;33524;-71
2021/10/24 18:45:03;;;;;;;46.33;42.80;;;;;;;13.81;100.00;101615.70;1941223;74;33583;-73
2021/10/24 18:50:28;;;;;;;44.40;41.10;;;;;;;13.90;100.00;101627.38;1941025;74;33072;-73
2021/10/24 18:56:12;;;;;;;45.07;41.47;;;;;;;13.86;100.00;101626.26;2000844;71;32868;-73
2021/10/24 19:01:38;;;;;;;43.20;39.73;;;;;;;13.82;100.00;101625.75;1941019;74;33179;-74
2021/10/24 19:07:05;;;;;;;47.43;43.73;;;;;;;13.88;100.00;101632.41;1941237;74;33126;-73
2021/10/24 19:12:29;;;;;;;46.40;42.60;;;;;;;13.93;100.00;101630.14;1941005;74;33088;-73
2021/10/24 19:17:58;;;;;;;44.43;41.03;;;;;;;13.79;100.00;101619.33;1941232;74;33493;-74
2021/10/24 19:23:22;;;;;;;45.33;41.73;;;;;;;13.83;100.00;101631.03;1940941;74;33022;-69
2021/10/24 19:28:48;;;;;;;45.93;42.43;;;;;;;13.84;100.00;101631.31;1940952;74;33062;-70
2021/10/24 19:34:12;;;;;;;46.67;43.13;;;;;;;13.61;100.00;101631.42;1941099;74;32980;-72
2021/10/24 19:39:36;;;;;;;48.27;44.43;;;;;;;13.65;100.00;101628.33;1941053;74;32985;-70
2021/10/24 19:45:01;;;;;;;46.70;42.93;;;;;;;13.68;100.00;101634.76;1940936;74;32983;-71
2021/10/24 19:50:26;;;;;;;46.80;43.03;;;;;;;13.61;100.00;101636.17;1941005;74;32984;-71
2021/10/24 19:55:52;;;;;;;47.23;43.13;;;;;;;13.74;100.00;101641.13;1941068;74;32991;-69
2021/10/24 20:01:21;;;;;;;46.23;42.47;;;;;;;13.65;100.00;101647.88;1941097;74;33056;-71
2021/10/24 20:06:51;;;;;;;46.93;43.03;;;;;;;13.54;100.00;101646.81;1941220;74;33052;-68
2021/10/24 20:12:16;;;;;;;45.37;42.03;;;;;;;13.81;100.00;101646.42;1941045;74;33047;-71
2021/10/24 20:17:43;;;;;;;45.60;42.07;;;;;;;13.85;100.00;101655.89;1941117;74;33036;-70
2021/10/24 20:23:08;;;;;;;46.50;42.83;;;;;;;13.72;100.00;101650.93;1941280;74;33514;-73
2021/10/24 20:28:33;;;;;;;45.60;41.90;;;;;;;13.80;100.00;101658.14;1941145;74;33676;-71
2021/10/24 20:33:58;;;;;;;47.97;44.27;;;;;;;14.00;100.00;101658.02;1941228;74;33630;-71
2021/10/24 20:39:43;;;;;;;46.60;42.60;;;;;;;13.99;100.00;101662.52;1941014;74;33066;-71
2021/10/24 20:45:10;;;;;;;46.80;42.87;;;;;;;13.99;100.00;101667.52;1941107;74;33101;-70
2021/10/24 20:50:38;;;;;;;46.57;42.83;;;;;;;14.13;100.00;101676.11;1941262;74;33028;-71
2021/10/24 20:56:06;;;;;;;44.83;41.03;;;;;;;14.08;100.00;101673.34;1941068;74;33017;-71
2021/10/24 21:01:33;;;;;;;48.33;44.53;;;;;;;14.06;100.00;101675.60;1941336;74;33567;-70
2021/10/24 21:07:00;;;;;;;47.50;43.50;;;;;;;14.11;100.00;101676.41;1941180;74;33003;-71
2021/10/24 21:12:30;;;;;;;46.97;42.90;;;;;;;14.06;100.00;101682.58;1941055;74;33007;-71
2021/10/24 21:17:55;;;;;;;47.20;43.43;;;;;;;14.11;100.00;101687.59;1941291;74;33525;-73
2021/10/24 21:23:22;;;;;;;44.77;40.83;;;;;;;14.06;100.00;101691.80;1941091;74;33119;-73
2021/10/24 21:28:48;;;;;;;45.27;41.03;;;;;;;14.13;100.00;101690.91;1941121;74;33095;-72
2021/10/24 21:34:15;;;;;;;45.27;41.37;;;;;;;14.19;100.00;101691.73;1941175;74;33040;-74
2021/10/24 21:39:39;;;;;;;46.70;42.17;;;;;;;14.19;100.00;101699.27;1941303;74;33503;-73
2021/10/24 21:45:10;;;;;;;44.70;40.63;;;;;;;14.27;100.00;101695.30;1941088;74;33035;-71
2021/10/24 21:50:39;;;;;;;46.53;42.17;;;;;;;14.21;100.00;101693.66;1941114;74;33087;-72
2021/10/24 21:56:03;;;;;;;45.53;41.40;;;;;;;14.13;100.00;101685.33;1941064;74;32968;-72
2021/10/24 22:01:33;;;;;;;46.47;42.50;;;;;;;13.98;100.00;101690.17;1941093;74;32983;-72
2021/10/24 22:06:59;;;;;;;47.37;43.60;;;;;;;13.81;100.00;101681.33;1941099;74;33003;-73
2021/10/24 22:12:24;;;;;;;46.13;42.13;;;;;;;13.82;100.00;101681.02;1941124;74;32995;-70
2021/10/24 22:17:56;;;;;;;46.37;42.30;;;;;;;13.74;100.00;101687.77;1941387;74;33640;-70
2021/10/24 22:23:21;;;;;;;46.47;42.23;;;;;;;13.74;100.00;101692.78;1940969;74;33060;-70
2021/10/24 22:28:48;;;;;;;52.63;48.33;;;;;;;13.75;100.00;101689.44;1941290;74;33506;-71
2021/10/24 22:34:14;;;;;;;49.93;46.03;;;;;;;13.59;100.00;101690.08;1941301;74;33032;-70
2021/10/24 22:39:41;;;;;;;49.90;45.00;;;;;;;13.47;100.00;101681.19;1941119;74;32981;-70
2021/10/24 22:45:07;;;;;;;45.57;41.17;;;;;;;13.55;100.00;101678.64;1941182;74;33075;-71
2021/10/24 22:50:32;;;;;;;46.30;42.23;;;;;;;13.54;100.00;101685.34;1941301;74;33681;-72
2021/10/24 22:55:57;;;;;;;45.77;41.83;;;;;;;13.60;100.00;101688.41;1941262;74;33507;-72
2021/10/24 23:01:24;;;;;;;44.00;40.30;;;;;;;13.59;100.00;101681.14;1941353;74;33507;-72
2021/10/24 23:06:48;;;;;;;44.40;40.73;;;;;;;13.56;100.00;101680.30;1941390;74;33077;-72
2021/10/24 23:12:13;;;;;;;47.43;43.00;;;;;;;13.56;100.00;101680.30;1941247;74;33549;-70
2021/10/24 23:17:37;;;;;;;47.50;43.47;;;;;;;13.53;100.00;101682.27;1941075;74;33026;-70
2021/10/24 23:23:03;;;;;;;46.50;42.33;;;;;;;13.58;100.00;101677.23;1941043;74;33146;-70
2021/10/24 23:28:27;;;;;;;46.00;42.00;;;;;;;13.55;100.00;101666.08;1941091;74;33072;-70
2021/10/24 23:33:53;;;;;;;44.83;40.97;;;;;;;13.47;100.00;101674.21;1941316;74;33585;-71
2021/10/24 23:39:17;;;;;;;46.67;42.77;;;;;;;13.44;100.00;101676.99;1941077;74;32978;-71
2021/10/24 23:44:42;;;;;;;46.97;42.83;;;;;;;13.38;100.00;101676.75;1941099;74;33078;-72
2021/10/24 23:50:08;;;;;;;47.83;43.63;;;;;;;13.37;100.00;101675.08;1941097;74;33139;-71
2021/10/24 23:55:34;;;;;;;46.60;42.77;;;;;;;13.35;100.00;101682.88;1941033;74;33097;-70
